Time;durP1;ratioP1;P1;durP2;ratioP2;P2;SDS_P1;SDS_P2;PMS_P1;PMS_P2;Temp;Humidity;BMP_temperature;BMP_pressure;BME280_temperature;BME280_humidity;BME280_pressure;Samples;Min_cycle;Max_cycle;Signal;HPM_P1;HPM_P2
2023/01/14 00:00:02;;;;;;;;;;;7.60;99.90;8.00;100423.00;;;;344092;28;91597;-87
2023/01/14 00:00:15;;;;;;;;;;;7.60;99.90;8.00;100420.00;;;;343458;28;83124;-87
2023/01/14 00:00:27;;;;;;;;;;;7.60;99.90;8.00;100418.00;;;;342984;28;88843;-87
2023/01/14 00:00:39;;;;;;;;;;;7.60;99.90;8.00;100418.00;;;;343295;28;82430;-87
2023/01/14 00:00:50;;;;;;;;;;;7.60;99.90;8.00;100414.00;;;;344408;28;88195;-87
2023/01/14 00:01:07;;;;;;;;;;;7.60;99.90;8.00;100418.00;;;;344600;28;82672;-87
2023/01/14 00:01:26;;;;;;;;;;;7.60;99.90;8.00;100421.00;;;;341479;28;91004;-87
2023/01/14 00:01:38;;;;;;;;;;;7.50;99.90;8.00;100422.00;;;;342166;28;83458;-87
2023/01/14 00:01:49;;;;;;;;;;;7.60;99.90;8.00;100410.00;;;;341629;28;89783;-87
2023/01/14 00:02:01;;;;;;;;;;;7.50;99.90;8.00;100421.00;;;;344605;28;83653;-88
2023/01/14 00:02:13;;;;;;;;;;;7.50;99.90;8.00;100423.00;;;;342869;28;89792;-88
2023/01/14 00:02:25;;;;;;;;;;;7.50;99.90;8.00;100423.00;;;;343335;28;83504;-87
2023/01/14 00:02:37;;;;;;;;;;;7.50;99.90;8.00;100421.00;;;;340368;28;89161;-87
2023/01/14 00:02:48;;;;;;;;;;;7.60;99.90;8.00;100416.00;;;;342862;28;82636;-87
2023/01/14 00:03:00;;;;;;;;;;;7.50;99.90;8.00;100425.00;;;;341617;28;89507;-87
2023/01/14 00:03:12;;;;;;;;;;;7.60;99.90;8.00;100423.00;;;;342165;28;83354;-87
2023/01/14 00:03:24;;;;;;;;;;;7.60;99.90;8.00;100418.00;;;;341720;28;89447;-87
2023/01/14 00:03:36;;;;;;;;;;;7.60;99.90;8.00;100416.00;;;;343360;28;83470;-87
2023/01/14 00:03:48;;;;;;;;;;;7.60;99.90;8.00;100420.00;;;;343980;28;92561;-87
2023/01/14 00:04:01;;;;;;;;;;;7.60;99.90;8.00;100410.00;;;;340760;28;83265;-87
2023/01/14 00:04:13;;;;;;;;;;;7.50;99.90;8.00;100417.00;;;;342870;28;91926;-87
2023/01/14 00:04:24;;;;;;;;;;;7.60;99.90;8.00;100409.00;;;;341976;28;83384;-87
2023/01/14 00:04:36;;;;;;;;;;;7.60;99.90;8.00;100413.00;;;;341467;28;90486;-87
2023/01/14 00:04:48;;;;;;;;;;;7.50;99.90;8.10;100423.00;;;;344776;28;83826;-87
2023/01/14 00:05:00;;;;;;;;;;;7.60;99.90;8.10;100413.00;;;;344194;28;92175;-87
2023/01/14 00:05:11;;;;;;;;;;;7.60;99.90;8.10;100418.00;;;;345964;28;83466;-87
2023/01/14 00:05:23;;;;;;;;;;;7.60;99.90;8.10;100418.00;;;;342805;28;89074;-87
2023/01/14 00:05:35;;;;;;;;;;;7.60;99.90;8.10;100417.00;;;;343515;28;83442;-87
2023/01/14 00:05:55;;;;;;;;;;;7.60;99.90;8.10;100411.00;;;;340157;28;90009;-87
2023/01/14 00:06:07;;;;;;;;;;;7.60;99.90;8.10;100413.00;;;;343240;28;83370;-87
2023/01/14 00:06:21;;;;;;;;;;;7.60;99.90;8.10;100414.00;;;;342690;28;88185;-87
2023/01/14 00:06:35;;;;;;;;;;;7.60;99.90;8.10;100410.00;;;;342047;28;83461;-87
2023/01/14 00:06:47;;;;;;;;;;;7.60;99.90;8.00;100411.00;;;;342959;28;91477;-87
2023/01/14 00:06:58;;;;;;;;;;;7.60;99.90;8.10;100417.00;;;;343434;28;82274;-87
2023/01/14 00:07:10;;;;;;;;;;;7.60;99.90;8.10;100408.00;;;;343030;28;88984;-87
2023/01/14 00:07:22;;;;;;;;;;;7.60;99.90;8.20;100407.00;;;;342070;28;83236;-87
2023/01/14 00:07:34;;;;;;;;;;;7.60;99.90;8.10;100404.00;;;;342925;28;91531;-87
2023/01/14 00:07:46;;;;;;;;;;;7.60;99.90;8.20;100410.00;;;;343383;28;83434;-87
2023/01/14 00:07:57;;;;;;;;;;;7.60;99.90;8.10;100413.00;;;;340260;28;93137;-87
2023/01/14 00:08:09;;;;;;;;;;;7.60;99.90;8.20;100413.00;;;;342039;28;83485;-87
2023/01/14 00:08:21;;;;;;;;;;;7.60;99.90;8.20;100409.00;;;;341447;28;92275;-87
2023/01/14 00:08:34;;;;;;;;;;;7.60;99.90;8.20;100404.00;;;;340759;28;83493;-87
2023/01/14 00:08:46;;;;;;;;;;;7.60;99.90;8.20;100412.00;;;;341310;28;88584;-87
2023/01/14 00:08:59;;;;;;;;;;;7.60;99.90;8.10;100408.00;;;;343476;28;83326;-87
2023/01/14 00:09:12;;;;;;;;;;;7.60;99.90;8.10;100410.00;;;;340238;28;90784;-87
2023/01/14 00:09:27;;;;;;;;;;;7.60;99.90;8.00;100407.00;;;;343565;28;83191;-87
2023/01/14 00:09:38;;;;;;;;;;;7.60;99.90;8.10;100415.00;;;;342983;28;89420;-87
2023/01/14 00:09:50;;;;;;;;;;;7.60;99.90;8.20;100410.00;;;;342914;28;83690;-87
2023/01/14 00:10:02;;;;;;;;;;;7.60;99.90;8.20;100407.00;;;;339911;28;92580;-87
2023/01/14 00:10:14;;;;;;;;;;;7.70;99.90;8.30;100406.00;;;;340683;28;82600;-87
2023/01/14 00:10:26;;;;;;;;;;;7.70;99.90;8.40;100410.00;;;;341303;28;90475;-87
2023/01/14 00:10:38;;;;;;;;;;;7.70;99.90;8.30;100406.00;;;;342277;28;82332;-86
2023/01/14 00:10:50;;;;;;;;;;;7.70;99.90;8.20;100413.00;;;;340233;28;91893;-87
2023/01/14 00:11:03;;;;;;;;;;;7.70;99.90;8.20;100405.00;;;;341949;28;83290;-87
2023/01/14 00:11:15;;;;;;;;;;;7.70;99.90;8.20;100415.00;;;;340248;28;91304;-87
2023/01/14 00:11:57;;;;;;;;;;;7.70;99.90;8.10;100409.00;;;;341349;28;89606;-87
2023/01/14 00:12:09;;;;;;;;;;;7.70;99.90;8.10;100407.00;;;;340658;28;83407;-87
2023/01/14 00:12:21;;;;;;;;;;;7.70;99.90;8.00;100408.00;;;;342793;28;91474;-87
2023/01/14 00:12:33;;;;;;;;;;;7.70;99.90;8.00;100410.00;;;;343535;28;83246;-87
2023/01/14 00:12:45;;;;;;;;;;;7.70;99.90;8.00;100410.00;;;;343013;28;91541;-87
2023/01/14 00:12:56;;;;;;;;;;;7.60;99.90;8.00;100414.00;;;;346195;28;82346;-87
2023/01/14 00:13:08;;;;;;;;;;;7.70;99.90;7.90;100401.00;;;;340337;28;89246;-86
2023/01/14 00:13:20;;;;;;;;;;;7.70;99.90;7.90;100416.00;;;;343525;28;82369;-87
2023/01/14 00:13:35;;;;;;;;;;;7.70;99.90;7.90;100410.00;;;;345743;28;90925;-87
2023/01/14 00:13:47;;;;;;;;;;;7.60;99.90;7.90;100420.00;;;;343278;28;82568;-87
2023/01/14 00:13:59;;;;;;;;;;;7.60;99.90;7.90;100410.00;;;;340406;28;90929;-87
2023/01/14 00:14:12;;;;;;;;;;;7.60;99.90;7.90;100415.00;;;;343456;28;82525;-87
2023/01/14 00:14:28;;;;;;;;;;;7.60;99.90;7.90;100411.00;;;;342808;28;90020;-87
2023/01/14 00:14:40;;;;;;;;;;;7.60;99.90;7.90;100420.00;;;;343329;28;83487;-87
2023/01/14 00:14:52;;;;;;;;;;;7.60;99.90;7.90;100419.00;;;;343120;28;87733;-87
2023/01/14 00:15:04;;;;;;;;;;;7.60;99.90;7.90;100415.00;;;;342088;28;82390;-87
2023/01/14 00:15:16;;;;;;;;;;;7.60;99.90;7.90;100421.00;;;;343009;28;89132;-87
2023/01/14 00:15:28;;;;;;;;;;;7.60;99.90;7.90;100416.00;;;;342134;28;82282;-87
2023/01/14 00:15:49;;;;;;;;;;;7.60;99.90;7.90;100417.00;;;;344288;28;92102;-87
2023/01/14 00:16:01;;;;;;;;;;;7.60;99.90;7.90;100426.00;;;;342133;28;82503;-87
2023/01/14 00:16:13;;;;;;;;;;;7.60;99.90;7.90;100420.00;;;;341648;28;89828;-87
2023/01/14 00:16:24;;;;;;;;;;;7.50;99.90;7.90;100424.00;;;;344672;28;83438;-87
2023/01/14 00:16:36;;;;;;;;;;;7.50;99.90;7.90;100425.00;;;;340302;28;90158;-87
2023/01/14 00:16:50;;;;;;;;;;;7.50;99.90;7.90;100421.00;;;;340648;28;83569;-87
2023/01/14 00:17:02;;;;;;;;;;;7.50;99.90;7.90;100414.00;;;;341609;28;89643;-87
2023/01/14 00:17:14;;;;;;;;;;;7.50;99.90;7.80;100419.00;;;;342217;28;83515;-87
2023/01/14 00:17:26;;;;;;;;;;;7.50;99.90;7.90;100420.00;;;;341720;28;89132;-87
2023/01/14 00:17:37;;;;;;;;;;;7.50;99.90;7.90;100423.00;;;;343405;28;83393;-87
2023/01/14 00:17:50;;;;;;;;;;;7.50;99.90;7.90;100428.00;;;;342977;28;89177;-87
2023/01/14 00:18:02;;;;;;;;;;;7.50;99.90;7.90;100421.00;;;;341982;28;82365;-87
2023/01/14 00:18:13;;;;;;;;;;;7.50;99.90;7.80;100417.00;;;;342742;28;87712;-87
2023/01/14 00:18:25;;;;;;;;;;;7.50;99.90;7.90;100421.00;;;;344700;28;82569;-87
2023/01/14 00:18:37;;;;;;;;;;;7.50;99.90;7.80;100412.00;;;;342857;28;92799;-87
2023/01/14 00:18:49;;;;;;;;;;;7.50;99.90;7.90;100416.00;;;;343260;28;82572;-87
2023/01/14 00:19:01;;;;;;;;;;;7.50;99.90;7.90;100421.00;;;;341642;28;91272;-87
2023/01/14 00:19:14;;;;;;;;;;;7.50;99.90;7.90;100418.00;;;;344809;28;82593;-87
2023/01/14 00:19:26;;;;;;;;;;;7.50;99.90;7.90;100419.00;;;;343063;28;88737;-87
2023/01/14 00:19:38;;;;;;;;;;;7.50;99.90;8.00;100423.00;;;;340837;28;83451;-87
2023/01/14 00:19:49;;;;;;;;;;;7.50;99.90;8.00;100418.00;;;;342819;28;90926;-87
2023/01/14 00:20:01;;;;;;;;;;;7.50;99.90;8.00;100422.00;;;;340579;28;83610;-87
2023/01/14 00:20:14;;;;;;;;;;;7.50;99.90;7.90;100426.00;;;;343050;28;89159;-87
2023/01/14 00:20:27;;;;;;;;;;;7.50;99.90;8.00;100419.00;;;;346131;28;82604;-87
2023/01/14 00:20:39;;;;;;;;;;;7.50;99.90;8.00;100424.00;;;;343061;28;88660;-87
2023/01/14 00:21:11;;;;;;;;;;;7.50;99.90;7.90;100429.00;;;;343445;28;84010;-87
2023/01/14 00:21:22;;;;;;;;;;;7.50;99.90;8.00;100428.00;;;;344363;28;90702;-87
2023/01/14 00:21:34;;;;;;;;;;;7.50;99.90;8.00;100423.00;;;;339267;28;83415;-87
2023/01/14 00:21:46;;;;;;;;;;;7.50;99.90;8.00;100419.00;;;;341166;28;89966;-87
2023/01/14 00:21:58;;;;;;;;;;;7.50;99.90;8.00;100416.00;;;;342077;28;83301;-87
2023/01/14 00:22:10;;;;;;;;;;;7.50;99.90;7.90;100421.00;;;;341426;28;90602;-87
2023/01/14 00:22:22;;;;;;;;;;;7.50;99.90;7.90;100423.00;;;;340673;28;82432;-87
2023/01/14 00:22:34;;;;;;;;;;;7.60;99.90;8.00;100424.00;;;;343218;28;88832;-87
2023/01/14 00:22:45;;;;;;;;;;;7.50;99.90;8.00;100420.00;;;;345466;28;83500;-87
2023/01/14 00:22:57;;;;;;;;;;;7.50;99.90;8.10;100419.00;;;;344897;28;92671;-88
2023/01/14 00:23:09;;;;;;;;;;;7.50;99.90;8.10;100421.00;;;;344867;28;83503;-86
2023/01/14 00:23:21;;;;;;;;;;;7.60;99.90;8.20;100419.00;;;;342228;28;90800;-87
2023/01/14 00:23:33;;;;;;;;;;;7.60;99.90;8.20;100422.00;;;;342529;28;83514;-87
2023/01/14 00:23:45;;;;;;;;;;;7.60;99.90;8.30;100415.00;;;;345038;28;89032;-86
2023/01/14 00:23:57;;;;;;;;;;;7.60;99.90;8.30;100434.00;;;;342548;28;82660;-87
2023/01/14 00:24:12;;;;;;;;;;;7.60;99.90;8.40;100422.00;;;;343721;28;87742;-87
2023/01/14 00:24:24;;;;;;;;;;;7.60;99.90;8.30;100421.00;;;;346839;28;82534;-87
2023/01/14 00:24:36;;;;;;;;;;;7.60;99.90;8.30;100414.00;;;;343035;28;87969;-87
2023/01/14 00:24:48;;;;;;;;;;;7.60;99.90;8.20;100424.00;;;;346100;28;82196;-86
2023/01/14 00:25:00;;;;;;;;;;;7.60;99.90;8.20;100418.00;;;;343972;28;89066;-87
2023/01/14 00:25:14;;;;;;;;;;;7.70;99.90;8.20;100414.00;;;;343373;28;82518;-87
2023/01/14 00:25:26;;;;;;;;;;;7.70;99.90;8.20;100420.00;;;;345696;28;88029;-87
2023/01/14 00:25:38;;;;;;;;;;;7.70;99.90;8.20;100419.00;;;;345355;28;83194;-87
2023/01/14 00:25:50;;;;;;;;;;;7.70;99.90;8.20;100421.00;;;;344934;28;89177;-87
2023/01/14 00:26:14;;;;;;;;;;;7.70;99.90;8.20;100415.00;;;;344054;28;82469;-87
2023/01/14 00:26:26;;;;;;;;;;;7.70;99.90;8.20;100416.00;;;;345028;28;88962;-87
2023/01/14 00:26:38;;;;;;;;;;;7.70;99.90;8.10;100417.00;;;;341576;28;82435;-87
2023/01/14 00:26:51;;;;;;;;;;;7.70;99.90;8.20;100407.00;;;;343667;28;86449;-87
2023/01/14 00:27:03;;;;;;;;;;;7.70;99.90;8.20;100412.00;;;;343688;28;83668;-88
2023/01/14 00:27:15;;;;;;;;;;;7.70;99.90;8.30;100413.00;;;;341784;28;89212;-87
2023/01/14 00:27:27;;;;;;;;;;;7.70;99.90;8.20;100415.00;;;;342065;28;82591;-87
2023/01/14 00:27:39;;;;;;;;;;;7.70;99.90;8.10;100412.00;;;;340499;28;89028;-88
2023/01/14 00:27:51;;;;;;;;;;;7.70;99.90;8.10;100414.00;;;;342110;28;83517;-88
2023/01/14 00:28:02;;;;;;;;;;;7.70;99.90;8.10;100412.00;;;;341753;28;89360;-87
2023/01/14 00:28:14;;;;;;;;;;;7.70;99.90;8.10;100417.00;;;;344959;28;82363;-87
2023/01/14 00:28:26;;;;;;;;;;;7.70;99.90;8.10;100415.00;;;;343052;28;89456;-87
2023/01/14 00:28:38;;;;;;;;;;;7.70;99.90;8.20;100413.00;;;;342139;28;83502;-88
2023/01/14 00:28:52;;;;;;;;;;;7.70;99.90;8.10;100413.00;;;;342778;28;89132;-87
2023/01/14 00:29:04;;;;;;;;;;;7.70;99.90;8.20;100403.00;;;;342081;28;83407;-87
2023/01/14 00:29:18;;;;;;;;;;;7.70;99.90;8.20;100410.00;;;;342423;28;89163;-88
2023/01/14 00:29:31;;;;;;;;;;;7.70;99.90;8.20;100407.00;;;;343527;28;83351;-88
2023/01/14 00:29:43;;;;;;;;;;;7.70;99.90;8.30;100412.00;;;;343085;28;88272;-86
2023/01/14 00:29:55;;;;;;;;;;;7.70;99.90;8.30;100415.00;;;;342421;28;82550;-87
2023/01/14 00:30:07;;;;;;;;;;;7.70;99.90;8.30;100415.00;;;;345071;28;88956;-87
2023/01/14 00:30:19;;;;;;;;;;;7.70;99.90;8.40;100416.00;;;;345308;28;82380;-87
2023/01/14 00:30:31;;;;;;;;;;;7.70;99.90;8.40;100411.00;;;;346229;28;89562;-88
2023/01/14 00:30:43;;;;;;;;;;;7.70;99.90;8.30;100411.00;;;;345202;28;83393;-87
2023/01/14 00:31:01;;;;;;;;;;;7.70;99.90;8.20;100409.00;;;;344950;28;88948;-88
2023/01/14 00:31:19;;;;;;;;;;;7.70;99.90;8.30;100405.00;;;;345279;28;83400;-87
2023/01/14 00:31:31;;;;;;;;;;;7.70;99.90;8.20;100405.00;;;;343507;28;90467;-88
2023/01/14 00:31:43;;;;;;;;;;;7.80;99.90;8.20;100409.00;;;;343582;28;82600;-87
2023/01/14 00:31:59;;;;;;;;;;;7.80;99.90;8.30;100408.00;;;;344933;28;89906;-87
2023/01/14 00:32:11;;;;;;;;;;;7.70;99.90;8.30;100408.00;;;;343531;28;83339;-87
2023/01/14 00:32:23;;;;;;;;;;;7.80;99.90;8.30;100412.00;;;;344858;28;87706;-87
2023/01/14 00:32:34;;;;;;;;;;;7.70;99.90;8.30;100408.00;;;;343648;28;83509;-87
2023/01/14 00:32:46;;;;;;;;;;;7.80;99.90;8.30;100408.00;;;;343016;28;88055;-87
2023/01/14 00:32:58;;;;;;;;;;;7.80;99.90;8.20;100411.00;;;;343478;28;83404;-88
2023/01/14 00:33:10;;;;;;;;;;;7.80;99.90;8.20;100408.00;;;;341715;28;88799;-87
2023/01/14 00:33:21;;;;;;;;;;;7.80;99.90;8.20;100410.00;;;;346185;28;82526;-87
2023/01/14 00:33:33;;;;;;;;;;;7.80;99.90;8.20;100402.00;;;;345726;28;88582;-87
2023/01/14 00:33:45;;;;;;;;;;;7.80;99.90;8.20;100406.00;;;;343179;28;82478;-87
2023/01/14 00:33:59;;;;;;;;;;;7.80;99.90;8.20;100412.00;;;;340266;28;89310;-86
2023/01/14 00:34:11;;;;;;;;;;;7.70;99.90;8.20;100405.00;;;;340729;28;83329;-87
2023/01/14 00:34:24;;;;;;;;;;;7.80;99.90;8.10;100405.00;;;;344249;28;92096;-87
2023/01/14 00:34:36;;;;;;;;;;;7.80;99.90;8.20;100408.00;;;;343424;28;82477;-88
2023/01/14 00:34:48;;;;;;;;;;;7.80;99.90;8.20;100407.00;;;;341688;28;87568;-87
2023/01/14 00:35:00;;;;;;;;;;;7.80;99.90;8.20;100403.00;;;;343247;28;83414;-87
2023/01/14 00:35:11;;;;;;;;;;;7.80;99.90;8.20;100414.00;;;;341293;28;91523;-87
2023/01/14 00:35:23;;;;;;;;;;;7.80;99.90;8.20;100407.00;;;;342158;28;83403;-87
2023/01/14 00:35:35;;;;;;;;;;;7.80;99.90;8.20;100403.00;;;;341652;28;90688;-87
2023/01/14 00:35:52;;;;;;;;;;;7.80;99.90;8.10;100411.00;;;;342035;28;83339;-87
2023/01/14 00:36:06;;;;;;;;;;;7.80;99.90;8.20;100409.00;;;;342805;28;92701;-87
2023/01/14 00:36:19;;;;;;;;;;;7.80;99.90;8.20;100413.00;;;;343501;28;83307;-87
2023/01/14 00:36:30;;;;;;;;;;;7.80;99.90;8.20;100410.00;;;;343014;28;87781;-87
2023/01/14 00:36:43;;;;;;;;;;;7.80;99.90;8.10;100416.00;;;;343401;28;83463;-87
2023/01/14 00:36:55;;;;;;;;;;;7.80;99.90;8.20;100421.00;;;;344440;28;91474;-87
2023/01/14 00:37:07;;;;;;;;;;;7.80;99.90;8.20;100423.00;;;;343362;28;83385;-87
2023/01/14 00:37:19;;;;;;;;;;;7.80;99.90;8.10;100416.00;;;;337626;28;91276;-87
2023/01/14 00:37:30;;;;;;;;;;;7.80;99.90;8.10;100417.00;;;;341822;28;82509;-88
2023/01/14 00:37:42;;;;;;;;;;;7.80;99.90;8.10;100412.00;;;;341436;28;92754;-87
2023/01/14 00:37:56;;;;;;;;;;;7.80;99.90;8.10;100419.00;;;;342022;28;83444;-87
2023/01/14 00:38:07;;;;;;;;;;;7.80;99.90;8.10;100421.00;;;;342972;28;89499;-87
2023/01/14 00:38:19;;;;;;;;;;;7.80;99.90;8.00;100420.00;;;;341892;28;83412;-87
2023/01/14 00:38:31;;;;;;;;;;;7.80;99.90;8.00;100417.00;;;;340230;28;88342;-87
2023/01/14 00:38:43;;;;;;;;;;;7.80;99.90;8.00;100422.00;;;;343457;28;82444;-88
2023/01/14 00:38:55;;;;;;;;;;;7.80;99.90;8.00;100414.00;;;;344349;28;88191;-87
2023/01/14 00:39:07;;;;;;;;;;;7.80;99.90;8.00;100427.00;;;;340501;28;83466;-88
2023/01/14 00:39:19;;;;;;;;;;;7.80;99.90;8.00;100414.00;;;;339007;28;89489;-88
2023/01/14 00:39:31;;;;;;;;;;;7.80;99.90;8.00;100426.00;;;;339448;28;82444;-88
2023/01/14 00:39:42;;;;;;;;;;;7.80;99.90;8.00;100424.00;;;;341588;28;89985;-87
2023/01/14 00:39:54;;;;;;;;;;;7.80;99.90;8.00;100424.00;;;;343413;28;83214;-88
2023/01/14 00:40:09;;;;;;;;;;;7.80;99.90;8.00;100418.00;;;;341631;28;88583;-87
2023/01/14 00:40:21;;;;;;;;;;;7.80;99.90;8.00;100425.00;;;;343128;28;83482;-88
2023/01/14 00:40:33;;;;;;;;;;;7.80;99.90;8.00;100426.00;;;;341688;28;89633;-87
2023/01/14 00:40:45;;;;;;;;;;;7.70;99.90;8.00;100421.00;;;;342109;28;83313;-88
2023/01/14 00:41:04;;;;;;;;;;;7.70;99.90;8.00;100417.00;;;;339059;28;88795;-87
2023/01/14 00:41:22;;;;;;;;;;;7.70;99.90;8.00;100422.00;;;;340773;28;83363;-88
2023/01/14 00:41:34;;;;;;;;;;;7.70;99.90;8.00;100418.00;;;;341669;28;89709;-88
2023/01/14 00:41:46;;;;;;;;;;;7.70;99.90;8.00;100420.00;;;;344632;28;83474;-88
2023/01/14 00:41:57;;;;;;;;;;;7.70;99.90;8.00;100430.00;;;;341570;28;90585;-88
2023/01/14 00:42:09;;;;;;;;;;;7.70;99.90;8.10;100425.00;;;;340658;28;83456;-87
2023/01/14 00:42:21;;;;;;;;;;;7.70;99.90;8.10;100420.00;;;;342945;28;88806;-88
2023/01/14 00:42:33;;;;;;;;;;;7.70;99.90;8.10;100409.00;;;;341997;28;83344;-87
2023/01/14 00:42:44;;;;;;;;;;;7.70;99.90;8.20;100422.00;;;;342951;28;92111;-87
2023/01/14 00:42:56;;;;;;;;;;;7.70;99.90;8.20;100415.00;;;;344685;28;83345;-87
2023/01/14 00:43:08;;;;;;;;;;;7.70;99.90;8.30;100410.00;;;;344253;28;90473;-88
2023/01/14 00:43:20;;;;;;;;;;;7.70;99.90;8.30;100405.00;;;;344389;28;83965;-87
2023/01/14 00:43:32;;;;;;;;;;;7.70;99.90;8.30;100414.00;;;;337698;28;89243;-87
2023/01/14 00:43:47;;;;;;;;;;;7.70;99.90;8.30;100414.00;;;;341902;28;83440;-88
2023/01/14 00:43:59;;;;;;;;;;;7.70;99.90;8.30;100411.00;;;;344343;28;89840;-88
2023/01/14 00:44:11;;;;;;;;;;;7.70;99.90;8.30;100406.00;;;;342105;28;83388;-87
2023/01/14 00:44:23;;;;;;;;;;;7.70;99.90;8.30;100412.00;;;;342953;28;89074;-87
2023/01/14 00:44:34;;;;;;;;;;;7.70;99.90;8.30;100402.00;;;;340665;28;82429;-87
2023/01/14 00:44:46;;;;;;;;;;;7.70;99.90;8.30;100408.00;;;;344336;28;88331;-87
2023/01/14 00:44:58;;;;;;;;;;;7.80;99.90;8.30;100401.00;;;;344701;28;82488;-88
2023/01/14 00:45:10;;;;;;;;;;;7.80;99.90;8.30;100400.00;;;;341602;28;90612;-87
2023/01/14 00:45:21;;;;;;;;;;;7.80;99.90;8.30;100403.00;;;;340697;28;83440;-87
2023/01/14 00:45:33;;;;;;;;;;;7.80;99.90;8.30;100409.00;;;;342703;28;89247;-87
2023/01/14 00:45:45;;;;;;;;;;;7.80;99.90;8.40;100400.00;;;;346053;28;82550;-87
2023/01/14 00:45:57;;;;;;;;;;;7.80;99.90;8.50;100392.00;;;;342799;28;93409;-88
2023/01/14 00:46:13;;;;;;;;;;;7.80;99.90;8.40;100393.00;;;;341985;28;83433;-88
2023/01/14 00:46:27;;;;;;;;;;;7.80;99.90;8.40;100398.00;;;;342896;28;90436;-87
2023/01/14 00:46:40;;;;;;;;;;;7.80;99.90;8.40;100399.00;;;;343326;28;84126;-88
2023/01/14 00:46:53;;;;;;;;;;;7.80;99.90;8.40;100388.00;;;;342980;28;91281;-88
2023/01/14 00:47:05;;;;;;;;;;;7.80;99.90;8.40;100393.00;;;;343098;28;83306;-88
2023/01/14 00:47:17;;;;;;;;;;;7.80;99.90;8.50;100388.00;;;;344078;28;87852;-88
2023/01/14 00:47:28;;;;;;;;;;;7.80;99.90;8.40;100392.00;;;;345856;28;83595;-87
2023/01/14 00:47:40;;;;;;;;;;;7.80;99.90;8.40;100393.00;;;;342931;28;89435;-88
2023/01/14 00:47:52;;;;;;;;;;;7.80;99.90;8.40;100389.00;;;;344685;28;82410;-87
2023/01/14 00:48:04;;;;;;;;;;;7.80;99.90;8.30;100394.00;;;;345234;28;92651;-87
2023/01/14 00:48:16;;;;;;;;;;;7.80;99.90;8.40;100392.00;;;;344722;28;83355;-87
2023/01/14 00:48:28;;;;;;;;;;;7.80;99.90;8.30;100382.00;;;;345718;28;89081;-87
2023/01/14 00:48:40;;;;;;;;;;;7.90;99.90;8.30;100384.00;;;;340667;28;83395;-88
2023/01/14 00:48:52;;;;;;;;;;;7.90;99.90;8.20;100388.00;;;;341685;28;89491;-88
2023/01/14 00:49:04;;;;;;;;;;;7.80;99.90;8.20;100392.00;;;;344401;28;83530;-87
2023/01/14 00:49:18;;;;;;;;;;;7.80;99.90;8.20;100386.00;;;;341593;28;88471;-88
2023/01/14 00:49:30;;;;;;;;;;;7.80;99.90;8.20;100385.00;;;;342179;28;83294;-87
2023/01/14 00:49:42;;;;;;;;;;;7.80;99.90;8.20;100387.00;;;;342890;28;91441;-87
2023/01/14 00:49:54;;;;;;;;;;;7.80;99.90;8.10;100387.00;;;;341857;28;83519;-88
2023/01/14 00:50:07;;;;;;;;;;;7.80;99.90;8.10;100390.00;;;;344066;28;91738;-87
2023/01/14 00:50:19;;;;;;;;;;;7.80;99.90;8.20;100375.00;;;;343391;28;83332;-87
2023/01/14 00:50:30;;;;;;;;;;;7.80;99.90;8.10;100390.00;;;;341493;28;88383;-87
2023/01/14 00:50:42;;;;;;;;;;;7.80;99.90;8.20;100380.00;;;;341955;28;83441;-88
2023/01/14 00:50:54;;;;;;;;;;;7.80;99.90;8.30;100388.00;;;;341638;28;89132;-88
2023/01/14 00:51:06;;;;;;;;;;;7.80;99.90;8.20;100386.00;;;;344698;28;82508;-88
2023/01/14 00:51:19;;;;;;;;;;;7.80;99.90;8.20;100386.00;;;;341130;28;89157;-87
2023/01/14 00:51:31;;;;;;;;;;;7.80;99.90;8.20;100390.00;;;;343449;28;83233;-88
2023/01/14 00:51:43;;;;;;;;;;;7.80;99.90;8.30;100381.00;;;;344118;28;87742;-88
2023/01/14 00:51:55;;;;;;;;;;;7.80;99.90;8.30;100384.00;;;;340533;28;83239;-88
2023/01/14 00:52:07;;;;;;;;;;;7.80;99.90;8.40;100393.00;;;;342851;28;90423;-88
2023/01/14 00:52:18;;;;;;;;;;;7.80;99.90;8.30;100377.00;;;;342104;28;82438;-88
2023/01/14 00:52:30;;;;;;;;;;;7.80;99.90;8.30;100387.00;;;;344323;28;88397;-88
2023/01/14 00:52:42;;;;;;;;;;;7.80;99.90;8.40;100383.00;;;;343284;28;83434;-88
2023/01/14 00:52:54;;;;;;;;;;;7.80;99.90;8.40;100391.00;;;;341623;28;89184;-87
2023/01/14 00:53:05;;;;;;;;;;;7.80;99.90;8.40;100382.00;;;;341950;28;83434;-88
2023/01/14 00:53:17;;;;;;;;;;;7.80;99.90;8.40;100387.00;;;;343039;28;87792;-88
2023/01/14 00:53:29;;;;;;;;;;;7.80;99.90;8.50;100386.00;;;;342107;28;82537;-88
2023/01/14 00:53:41;;;;;;;;;;;7.80;99.90;8.50;100390.00;;;;340219;28;88423;-88
2023/01/14 00:53:53;;;;;;;;;;;7.80;99.90;8.50;100391.00;;;;343129;28;83977;-86
2023/01/14 00:54:05;;;;;;;;;;;7.90;99.90;8.50;100384.00;;;;345537;28;92810;-88
2023/01/14 00:54:18;;;;;;;;;;;7.90;99.90;8.40;100391.00;;;;344531;28;83509;-88
2023/01/14 00:54:32;;;;;;;;;;;7.90;99.90;8.40;100385.00;;;;341360;28;91169;-88
2023/01/14 00:54:43;;;;;;;;;;;7.90;99.90;8.50;100389.00;;;;344584;28;83525;-88
2023/01/14 00:54:55;;;;;;;;;;;7.90;99.90;8.40;100385.00;;;;344374;28;89216;-88
2023/01/14 00:55:07;;;;;;;;;;;7.90;99.90;8.40;100390.00;;;;346063;28;83279;-88
2023/01/14 00:55:19;;;;;;;;;;;7.90;99.90;8.40;100388.00;;;;345466;28;90805;-88
2023/01/14 00:55:33;;;;;;;;;;;7.90;99.90;8.30;100392.00;;;;341868;28;83372;-88
2023/01/14 00:55:45;;;;;;;;;;;7.90;99.90;8.40;100387.00;;;;342853;28;89196;-88
2023/01/14 00:55:57;;;;;;;;;;;7.90;99.90;8.40;100389.00;;;;341877;28;83548;-88
2023/01/14 00:56:09;;;;;;;;;;;7.90;99.90;8.30;100386.00;;;;341574;28;90003;-88
2023/01/14 00:56:21;;;;;;;;;;;7.90;99.90;8.30;100386.00;;;;343366;28;82343;-87
2023/01/14 00:56:33;;;;;;;;;;;7.90;99.90;8.30;100375.00;;;;343077;28;88997;-88
2023/01/14 00:56:45;;;;;;;;;;;7.90;99.90;8.30;100380.00;;;;340637;28;83324;-88
2023/01/14 00:56:57;;;;;;;;;;;7.90;99.90;8.30;100394.00;;;;343081;28;89027;-88
2023/01/14 00:57:08;;;;;;;;;;;7.80;99.90;8.30;100386.00;;;;342010;28;83364;-87
2023/01/14 00:57:20;;;;;;;;;;;7.90;99.90;8.30;100389.00;;;;341439;28;88691;-88
2023/01/14 00:57:32;;;;;;;;;;;7.90;99.90;8.30;100394.00;;;;341934;28;83530;-87
2023/01/14 00:57:44;;;;;;;;;;;7.90;99.90;8.30;100379.00;;;;342836;28;91450;-88
2023/01/14 00:57:56;;;;;;;;;;;7.90;99.90;8.30;100378.00;;;;341986;28;83427;-87
2023/01/14 00:58:08;;;;;;;;;;;7.80;99.90;8.30;100387.00;;;;341565;28;88424;-88
2023/01/14 00:58:20;;;;;;;;;;;7.90;99.90;8.30;100386.00;;;;344646;28;83428;-88
2023/01/14 00:58:31;;;;;;;;;;;7.80;99.90;8.30;100384.00;;;;341376;28;89505;-88
2023/01/14 00:58:43;;;;;;;;;;;7.90;99.90;8.30;100389.00;;;;344782;28;83426;-87
2023/01/14 00:58:55;;;;;;;;;;;7.90;99.90;8.20;100382.00;;;;342709;28;90607;-88
2023/01/14 00:59:16;;;;;;;;;;;7.80;99.90;8.20;100391.00;;;;343054;28;83540;-88
2023/01/14 00:59:28;;;;;;;;;;;7.80;99.90;8.20;100380.00;;;;344257;28;89363;-88
2023/01/14 00:59:40;;;;;;;;;;;7.80;99.90;8.30;100380.00;;;;344553;28;82648;-87
2023/01/14 00:59:52;;;;;;;;;;;7.80;99.90;8.20;100381.00;;;;339840;28;91514;-88
2023/01/14 01:00:04;;;;;;;;;;;7.90;99.90;8.20;100379.00;;;;344596;28;82585;-87
2023/01/14 01:00:18;;;;;;;;;;;7.80;99.90;8.20;100380.00;;;;343003;28;90079;-87
2023/01/14 01:00:30;;;;;;;;;;;7.90;99.90;8.20;100374.00;;;;340529;28;83486;-88
2023/01/14 01:00:43;;;;;;;;;;;7.80;99.90;8.10;100372.00;;;;344055;28;90208;-88
2023/01/14 01:00:54;;;;;;;;;;;7.80;99.90;8.10;100379.00;;;;344813;28;83336;-88
2023/01/14 01:01:06;;;;;;;;;;;7.80;99.90;8.10;100377.00;;;;344277;28;90535;-88
2023/01/14 01:01:19;;;;;;;;;;;7.80;99.90;8.20;100370.00;;;;344708;28;83445;-87
2023/01/14 01:01:31;;;;;;;;;;;7.80;99.90;8.30;100380.00;;;;342912;28;90040;-88
2023/01/14 01:01:43;;;;;;;;;;;7.80;99.90;8.30;100377.00;;;;343357;28;83451;-87
2023/01/14 01:01:55;;;;;;;;;;;7.80;99.90;8.40;100373.00;;;;344314;28;89088;-88
2023/01/14 01:02:07;;;;;;;;;;;7.80;99.90;8.50;100371.00;;;;343387;28;83385;-87
2023/01/14 01:02:19;;;;;;;;;;;7.80;99.90;8.40;100376.00;;;;344062;28;93149;-87
2023/01/14 01:02:30;;;;;;;;;;;7.80;99.90;8.40;100380.00;;;;343366;28;83455;-88
2023/01/14 01:02:42;;;;;;;;;;;7.90;99.90;8.30;100376.00;;;;344088;28;91586;-88
2023/01/14 01:02:54;;;;;;;;;;;7.80;99.90;8.20;100366.00;;;;342113;28;83341;-88